13:23
Airports
History
Links
Donate
Help keep this website running!
PayPal
Bitcoin
This page is community maintained. The information is intended for PC simulator navigation or reference.
Always use approved charts for navigation.
CTG3
DU ROCHER PERCE PABOK
DU ROCHER PERCE PABOK (CTG3)
Grande-Rivière-Ouest, Québec, Canada
(U)
Lat/Lng:48° 23' 0" N / 64° 33' 52" W
48.383334 / -64.564445
Elevation:87'ft / 27mMSL
ID / ICAO:CTG3
Runways:1
Longest:09-27
Asphalt 1,223m / 4,013ft
Nearby Weather13:14 GMT 2018-01-20
Nearby weather at CYGP, GASPE located 27.4 nautical miles from CTG3
Altimeter: 29.33
Visibility: 2.0 statute miles
Wind: 3 knots (from 090°)
Temp: -5°c / 23°f
Humidity: 79.4%

METAR: CYGP 201314Z 09003KT 060V150 2SM -SN OVC010 M05/M08 A2933 RMK SN4SC4 PRESFR SLP937

(Powered by phpweather)
Airport Radio Frequencies
CTAF/UNICOM: 122.35
Approach: 126.7
Nearby VORs <50NM
Nearby NDBs
Runway 09 / 27
Dimensions:1223.1 x 30.5m 4013' x 100'ft
Surface:Asphalt
Edge Lights:Low intensity
Runway 09 [A]Runway 27 [B]
Heading:065°TH 245°TH
Lat:
Lng:
48° 22' 51.71"N
64° 34' 18.89"W
48° 23' 8.29"N
64° 33' 25.11"W
User Notes and Comments
48° 23' 0" N / 64° 33' 52" W
Distance To
Airport ID:
Nearby Airports
(U) GASPE 27.4 NM
CYGP ( WX ) N
(U) BONAVENTURE 46.5 NM
CYVB WSW 242°
(U) POKEMOUCHE 48.4 NM
CDA4 SSW 197°
(U) BATHURST 75.2 NM
CZBF SW 226°
(U) CHARLO 85.8 NM
CYCL WSW 251°
(U) PORT MENIER 101.2 NM
CYPN N
(C) Squirrel Cove 103.0 NM
CYSZ WNW 299°
VFR Chart
Flight Planning at SkyVector.com